Time;durP1;ratioP1;P1;durP2;ratioP2;P2;SDS_P1;SDS_P2;PMS_P1;PMS_P2;Temp;Humidity;BMP_temperature;BMP_pressure;BME280_temperature;BME280_humidity;BME280_pressure;Samples;Min_cycle;Max_cycle;Signal;HPM_P1;HPM_P2
2023/01/01 00:00:38;;;;;;;18.38;5.90;;;;;;;15.52;55.30;100655.22;5027674;28;20037;-69
2023/01/01 00:03:03;;;;;;;17.67;5.57;;;;;;;15.53;55.17;100651.41;5032660;28;20025;-70
2023/01/01 00:05:28;;;;;;;18.92;8.60;;;;;;;15.50;54.97;100657.38;5032864;28;20025;-69
2023/01/01 00:07:53;;;;;;;14.23;3.40;;;;;;;15.48;54.38;100654.94;5032367;28;20029;-70
2023/01/01 00:10:28;;;;;;;22.08;4.25;;;;;;;15.44;54.62;100666.63;5027268;28;20026;-70
2023/01/01 00:12:53;;;;;;;12.52;3.60;;;;;;;15.46;54.55;100662.56;4999026;28;20092;-69
2023/01/01 00:15:19;;;;;;;15.52;3.83;;;;;;;15.44;54.67;100681.06;5010264;28;20338;-70
2023/01/01 00:17:44;;;;;;;13.00;3.75;;;;;;;15.38;55.00;100679.38;5012750;28;20026;-70
2023/01/01 00:20:10;;;;;;;11.35;3.65;;;;;;;15.40;54.18;100669.88;5013012;28;20026;-70
2023/01/01 00:22:35;;;;;;;12.15;3.40;;;;;;;15.48;53.38;100671.28;5012751;28;20037;-70
2023/01/01 00:25:01;;;;;;;15.10;3.30;;;;;;;15.48;53.07;100686.84;5012395;28;20401;-70
2023/01/01 00:27:26;;;;;;;15.90;4.15;;;;;;;15.46;52.80;100684.38;5012825;28;20021;-70
2023/01/01 00:29:51;;;;;;;12.75;3.72;;;;;;;15.44;53.79;100685.72;5011332;28;20034;-71
2023/01/01 00:32:17;;;;;;;13.00;5.03;;;;;;;15.45;53.09;100671.81;5010305;28;20033;-72
2023/01/01 00:34:42;;;;;;;15.65;4.43;;;;;;;15.42;53.74;100672.34;5011513;28;20029;-72
2023/01/01 00:37:07;;;;;;;14.02;4.00;;;;;;;15.46;53.68;100667.16;5011293;28;20038;-72
2023/01/01 00:39:33;;;;;;;13.63;3.38;;;;;;;15.41;54.19;100671.53;5012774;28;20026;-71
2023/01/01 00:41:58;;;;;;;13.48;4.00;;;;;;;15.47;55.28;100668.81;5012500;28;20117;-71
2023/01/01 00:44:23;;;;;;;12.95;3.72;;;;;;;15.47;54.19;100680.53;5012489;28;20073;-73
2023/01/01 00:46:48;;;;;;;11.35;3.40;;;;;;;15.41;54.32;100666.06;5012681;28;20046;-71
2023/01/01 00:49:14;;;;;;;13.95;4.20;;;;;;;15.39;54.80;100672.88;5012157;28;20100;-72
2023/01/01 00:51:39;;;;;;;14.50;3.90;;;;;;;15.44;53.77;100656.53;5010723;28;20441;-69
2023/01/01 00:54:04;;;;;;;13.30;3.70;;;;;;;15.35;54.45;100667.13;5012334;28;20037;-69
2023/01/01 00:56:30;;;;;;;15.23;3.90;;;;;;;15.34;54.18;100649.09;5012605;28;20026;-70
2023/01/01 00:58:55;;;;;;;12.00;3.60;;;;;;;15.32;54.78;100678.53;5012368;28;20030;-70
2023/01/01 01:01:21;;;;;;;9.88;3.55;;;;;;;15.33;54.14;100677.44;5014049;28;20080;-69
2023/01/01 01:03:46;;;;;;;11.50;3.08;;;;;;;15.32;54.43;100675.78;5016242;28;20030;-70
2023/01/01 01:06:14;;;;;;;11.55;3.40;;;;;;;15.29;54.22;100689.94;4998548;28;20030;-69
2023/01/01 01:08:41;;;;;;;12.30;3.20;;;;;;;15.30;54.59;100688.88;4996878;28;20033;-71
2023/01/01 01:11:18;;;;;;;11.55;3.08;;;;;;;15.31;54.70;100693.25;4996861;28;20089;-70
2023/01/01 01:13:45;;;;;;;11.32;2.80;;;;;;;15.29;54.17;100700.03;5016049;28;20041;-69
2023/01/01 01:16:12;;;;;;;11.40;2.90;;;;;;;15.32;53.92;100664.88;5016241;28;20508;-69
2023/01/01 01:18:37;;;;;;;12.00;3.15;;;;;;;15.29;54.99;100673.59;5015052;28;20109;-70
2023/01/01 01:21:04;;;;;;;11.52;3.30;;;;;;;15.24;54.88;100677.09;5015628;28;20121;-70
2023/01/01 01:23:30;;;;;;;11.95;3.03;;;;;;;15.24;55.08;100668.09;5015745;28;20040;-69
2023/01/01 01:26:15;;;;;;;13.60;3.78;;;;;;;15.22;55.50;100684.72;5016179;28;20037;-70
2023/01/01 01:28:42;;;;;;;12.13;3.10;;;;;;;15.14;55.04;100695.28;5016159;28;20545;-70
2023/01/01 01:31:07;;;;;;;10.82;3.42;;;;;;;15.09;55.44;100706.97;5003218;28;20466;-70
2023/01/01 01:33:33;;;;;;;14.07;2.67;;;;;;;15.14;54.54;100703.47;4996447;28;20037;-70
2023/01/01 01:35:59;;;;;;;12.25;3.47;;;;;;;15.09;55.56;100698.78;4996104;28;20030;-70
2023/01/01 01:38:24;;;;;;;7.85;2.67;;;;;;;15.06;54.54;100708.28;4996290;28;20084;-70
2023/01/01 01:40:50;;;;;;;11.93;3.20;;;;;;;15.04;54.43;100709.66;4995766;28;20045;-69
2023/01/01 01:43:38;;;;;;;13.25;3.30;;;;;;;15.01;55.65;100710.97;4996200;28;20410;-70
2023/01/01 01:46:13;;;;;;;16.15;2.85;;;;;;;14.98;54.73;100700.59;4995081;28;20053;-69
2023/01/01 01:48:44;;;;;;;8.30;2.85;;;;;;;14.94;54.75;100704.91;4996366;28;20030;-70
2023/01/01 01:51:13;;;;;;;14.15;3.25;;;;;;;14.94;54.41;100715.81;4995113;28;20157;-69
2023/01/01 01:53:44;;;;;;;14.52;3.13;;;;;;;14.90;54.28;100709.25;4995734;28;20481;-70
2023/01/01 01:56:14;;;;;;;11.10;2.83;;;;;;;14.87;55.42;100723.34;5004865;28;20036;-69
2023/01/01 01:58:40;;;;;;;7.78;2.58;;;;;;;14.87;54.95;100728.81;5015548;28;20105;-70
2023/01/01 02:01:06;;;;;;;7.72;2.72;;;;;;;14.85;54.71;100741.88;5012887;28;20121;-69
2023/01/01 02:03:38;;;;;;;7.32;3.15;;;;;;;14.83;55.47;100735.88;5015288;28;20038;-70
2023/01/01 02:06:04;;;;;;;9.73;2.83;;;;;;;14.77;55.55;100726.00;5014849;28;20026;-70
2023/01/01 02:08:30;;;;;;;9.35;2.95;;;;;;;14.75;55.34;100749.94;5015351;28;20478;-70
2023/01/01 02:10:55;;;;;;;11.35;3.30;;;;;;;14.74;55.12;100740.13;5002437;28;20117;-70
2023/01/01 02:13:20;;;;;;;12.63;3.15;;;;;;;14.70;55.44;100743.38;4992269;28;20034;-70
2023/01/01 02:16:09;;;;;;;10.05;2.67;;;;;;;14.71;55.02;100744.19;4995101;28;20467;-70
2023/01/01 02:18:51;;;;;;;11.98;3.13;;;;;;;14.71;55.38;100739.53;4991009;28;20093;-69
2023/01/01 02:21:22;;;;;;;11.18;3.35;;;;;;;14.67;56.79;100743.88;4995554;28;20026;-69
2023/01/01 02:23:59;;;;;;;10.57;3.35;;;;;;;14.68;55.66;100733.78;4994609;28;20119;-69
2023/01/01 02:26:37;;;;;;;8.75;3.17;;;;;;;14.60;55.97;100732.31;4995116;28;20449;-69
2023/01/01 02:29:21;;;;;;;6.20;2.30;;;;;;;14.63;55.58;100758.22;4995840;28;20462;-70
2023/01/01 02:32:11;;;;;;;12.23;2.72;;;;;;;14.60;55.94;100726.88;4994570;28;20042;-70
2023/01/01 02:34:48;;;;;;;5.80;2.40;;;;;;;14.60;55.60;100731.47;5003465;28;20061;-70
2023/01/01 02:37:17;;;;;;;9.65;2.25;;;;;;;14.59;55.59;100730.66;5004621;28;20480;-69
2023/01/01 02:39:51;;;;;;;10.02;2.65;;;;;;;14.56;55.78;100741.25;5013754;28;20030;-69
2023/01/01 02:42:18;;;;;;;9.77;2.58;;;;;;;14.56;55.08;100744.78;5005782;28;20030;-70
2023/01/01 02:44:48;;;;;;;12.23;2.38;;;;;;;14.56;55.09;100735.81;5002766;28;20654;-69
2023/01/01 02:47:16;;;;;;;7.40;2.22;;;;;;;14.54;55.78;100722.44;5010562;28;20124;-70
2023/01/01 02:49:56;;;;;;;10.80;2.90;;;;;;;14.55;56.17;100729.53;4999127;28;20040;-69
2023/01/01 02:52:35;;;;;;;9.48;2.47;;;;;;;14.53;56.23;100735.22;5007767;28;20117;-69
2023/01/01 02:55:11;;;;;;;6.47;2.60;;;;;;;14.52;55.96;100754.53;5010975;28;20034;-69
2023/01/01 02:57:49;;;;;;;12.70;2.50;;;;;;;14.52;56.15;100757.25;4994120;28;20065;-70
2023/01/01 03:00:18;;;;;;;9.05;2.40;;;;;;;14.47;56.96;100746.31;5000404;28;20050;-69
2023/01/01 03:03:02;;;;;;;13.60;2.47;;;;;;;14.49;56.87;100752.31;4999780;28;20075;-70
2023/01/01 03:06:21;;;;;;;12.73;2.78;;;;;;;14.45;57.25;100762.09;4999638;28;20030;-69
2023/01/01 03:08:36;;;;;;;6.95;2.58;;;;;;;14.44;56.83;100777.59;4996556;28;20490;-69
2023/01/01 03:11:06;;;;;;;8.18;2.15;;;;;;;14.42;57.44;100768.84;5009113;28;20033;-69
2023/01/01 03:13:43;;;;;;;11.13;3.22;;;;;;;14.40;57.52;100759.28;5013843;28;20033;-69
2023/01/01 03:16:18;;;;;;;9.32;2.50;;;;;;;14.38;57.50;100748.66;4997721;28;20030;-69
2023/01/01 03:19:09;;;;;;;12.30;2.40;;;;;;;14.36;58.14;100770.69;5006818;28;20033;-69
2023/01/01 03:21:39;;;;;;;11.73;2.72;;;;;;;14.38;57.86;100778.59;5012061;28;20077;-69
2023/01/01 03:24:06;;;;;;;8.93;2.60;;;;;;;14.38;58.42;100777.78;5002222;28;20042;-69
2023/01/01 03:26:34;;;;;;;7.95;2.33;;;;;;;14.31;58.74;100770.63;5005567;28;20036;-69
2023/01/01 03:29:02;;;;;;;10.07;2.45;;;;;;;14.34;58.57;100772.00;5013682;28;20108;-69
2023/01/01 03:31:28;;;;;;;9.02;2.67;;;;;;;14.34;58.58;100772.84;5006203;28;20052;-70
2023/01/01 03:34:04;;;;;;;8.15;2.20;;;;;;;14.34;58.87;100767.41;5010273;28;20042;-69
2023/01/01 03:36:36;;;;;;;7.95;2.00;;;;;;;14.33;58.73;100763.03;5013055;28;20025;-69
2023/01/01 03:39:28;;;;;;;11.52;2.50;;;;;;;14.35;59.35;100779.09;5012419;28;20037;-70
2023/01/01 03:42:04;;;;;;;8.50;2.08;;;;;;;14.31;59.85;100776.06;5002328;28;20030;-69
2023/01/01 03:44:35;;;;;;;10.18;2.65;;;;;;;14.31;58.97;100778.78;5002262;28;20026;-69
2023/01/01 03:47:01;;;;;;;12.07;2.15;;;;;;;14.32;59.63;100787.78;5003739;28;20442;-70
2023/01/01 03:49:28;;;;;;;8.50;2.38;;;;;;;14.29;59.21;100794.53;4996806;28;20042;-70
2023/01/01 03:52:32;;;;;;;10.98;2.63;;;;;;;14.30;60.11;100807.09;4993128;28;20042;-69
2023/01/01 03:55:13;;;;;;;8.50;2.50;;;;;;;14.33;59.96;100792.16;4999391;28;20124;-70
2023/01/01 03:58:10;;;;;;;7.40;2.33;;;;;;;14.36;59.43;100803.34;5013084;28;20040;-69
2023/01/01 04:01:00;;;;;;;8.43;2.38;;;;;;;14.32;60.29;100804.91;4999450;28;20046;-69
2023/01/01 04:03:28;;;;;;;8.63;2.33;;;;;;;14.33;59.93;100803.84;4999581;28;20108;-70
2023/01/01 04:05:53;;;;;;;9.02;2.20;;;;;;;14.26;60.04;100808.66;5012218;28;20085;-69
2023/01/01 04:08:19;;;;;;;8.30;2.00;;;;;;;14.27;60.39;100810.31;4993423;28;20050;-69
2023/01/01 04:10:49;;;;;;;10.85;2.53;;;;;;;14.28;60.75;100808.41;5012334;28;20392;-69
2023/01/01 04:13:15;;;;;;;9.82;2.42;;;;;;;14.27;60.66;100813.03;5004333;28;20033;-69
2023/01/01 04:15:40;;;;;;;9.25;2.45;;;;;;;14.23;60.92;100819.22;5011728;28;20037;-69
2023/01/01 04:18:06;;;;;;;6.35;2.25;;;;;;;14.24;61.04;100826.31;5010969;28;20034;-69
2023/01/01 04:20:31;;;;;;;11.60;2.47;;;;;;;14.19;62.18;100802.56;4994781;28;20038;-69
2023/01/01 04:22:58;;;;;;;10.90;2.60;;;;;;;14.15;62.64;100818.56;5012913;28;20026;-69
2023/01/01 04:25:24;;;;;;;7.55;2.33;;;;;;;14.14;62.24;100805.22;5011605;28;20029;-70
2023/01/01 04:27:49;;;;;;;8.05;2.50;;;;;;;14.15;62.17;100801.44;5012956;28;20037;-69
2023/01/01 04:30:16;;;;;;;7.55;2.55;;;;;;;14.14;62.38;100805.22;5008141;28;20026;-69
2023/01/01 04:32:41;;;;;;;6.35;2.03;;;;;;;14.12;62.31;100797.31;5013120;28;20034;-69
2023/01/01 04:35:10;;;;;;;9.38;2.03;;;;;;;14.14;62.14;100808.75;5003991;28;20084;-69
2023/01/01 04:37:36;;;;;;;10.32;2.42;;;;;;;14.10;62.91;100820.38;5012745;28;20022;-69
2023/01/01 04:40:02;;;;;;;11.73;2.45;;;;;;;14.13;63.15;100828.03;5007228;28;20385;-69
2023/01/01 04:42:28;;;;;;;7.85;2.10;;;;;;;14.10;63.64;100825.81;4992812;28;20065;-69
2023/01/01 04:44:53;;;;;;;12.40;2.60;;;;;;;14.08;63.79;100823.34;4997766;28;20523;-69
2023/01/01 04:47:18;;;;;;;9.38;2.70;;;;;;;14.04;64.48;100829.53;5010143;28;20030;-69
2023/01/01 04:49:43;;;;;;;9.35;2.25;;;;;;;14.05;64.55;100829.28;5001107;28;20533;-69
2023/01/01 04:52:09;;;;;;;12.40;2.53;;;;;;;14.04;64.53;100843.16;5006850;28;20026;-69
2023/01/01 04:54:35;;;;;;;9.95;2.42;;;;;;;14.03;64.65;100833.34;5006294;28;20041;-69
2023/01/01 04:57:00;;;;;;;7.18;2.20;;;;;;;14.00;65.73;100842.84;5010290;28;20398;-69
2023/01/01 04:59:25;;;;;;;7.57;2.42;;;;;;;14.01;65.69;100841.78;5011317;28;20080;-69
2023/01/01 05:01:51;;;;;;;8.20;2.28;;;;;;;13.99;65.70;100842.03;5001526;28;20129;-69
2023/01/01 05:04:16;;;;;;;10.43;2.92;;;;;;;13.98;65.94;100847.72;4992869;28;20022;-69
2023/01/01 05:06:42;;;;;;;10.23;2.63;;;;;;;13.96;65.91;100858.81;5010190;28;20040;-69
2023/01/01 05:09:09;;;;;;;9.05;2.88;;;;;;;13.97;66.11;100859.66;5012206;28;20105;-69
2023/01/01 05:11:34;;;;;;;10.55;2.65;;;;;;;13.92;67.09;100871.28;4995363;28;20109;-69
2023/01/01 05:14:00;;;;;;;9.10;2.45;;;;;;;13.92;67.05;100867.72;4993173;28;20120;-69
2023/01/01 05:16:29;;;;;;;7.25;2.30;;;;;;;13.89;67.31;100862.75;4995561;28;20030;-69
2023/01/01 05:18:55;;;;;;;12.13;2.45;;;;;;;13.89;67.71;100870.94;4992525;28;20113;-69
2023/01/01 05:21:26;;;;;;;8.07;2.20;;;;;;;13.88;67.69;100883.72;5006848;28;20420;-69
2023/01/01 05:23:58;;;;;;;8.38;2.40;;;;;;;13.83;68.34;100887.19;5007455;28;20030;-69
2023/01/01 05:26:24;;;;;;;;;;;;;;;13.98;67.53;100908.38;5009093;28;20037;-69
2023/01/01 05:28:50;;;;;;;9.52;2.35;;;;;;;13.86;68.27;100913.06;5012305;28;20011;-69
2023/01/01 05:31:17;;;;;;;8.80;2.53;;;;;;;13.83;68.81;100919.81;5009314;28;20489;-69
2023/01/01 05:33:43;;;;;;;6.93;2.20;;;;;;;13.83;68.53;100924.44;4996371;28;20034;-69
2023/01/01 05:36:14;;;;;;;9.50;2.60;;;;;;;13.86;68.49;100921.22;5005162;28;20141;-69
2023/01/01 05:38:39;;;;;;;12.03;2.50;;;;;;;13.79;68.87;100918.66;5011818;28;20040;-69
2023/01/01 05:41:09;;;;;;;6.72;2.40;;;;;;;13.82;69.53;100925.50;5009751;28;20289;-69
2023/01/01 05:43:35;;;;;;;5.85;2.40;;;;;;;13.78;69.84;100913.44;5002086;28;20040;-69
2023/01/01 05:46:06;;;;;;;10.15;2.58;;;;;;;13.79;69.98;100928.72;5005515;28;20031;-69
2023/01/01 05:48:32;;;;;;;9.45;2.33;;;;;;;13.76;70.03;100935.44;4996871;28;20030;-70
2023/01/01 05:51:18;;;;;;;9.88;2.53;;;;;;;13.80;70.17;100935.81;5011143;28;20524;-69
2023/01/01 05:53:43;;;;;;;9.73;2.55;;;;;;;13.73;70.62;100946.81;4995954;28;20157;-69
2023/01/01 05:56:09;;;;;;;7.70;2.40;;;;;;;13.72;70.92;100942.44;5009136;28;20503;-69
2023/01/01 05:58:35;;;;;;;6.20;2.20;;;;;;;13.74;70.72;100953.06;5015266;28;20041;-69
2023/01/01 06:01:18;;;;;;;11.27;2.88;;;;;;;13.73;71.58;100963.13;4999956;28;20051;-69
2023/01/01 06:03:44;;;;;;;8.70;2.92;;;;;;;13.71;71.47;100956.28;5004247;28;20099;-69
2023/01/01 06:06:12;;;;;;;8.45;2.50;;;;;;;13.65;71.91;100958.91;5014138;28;20121;-69
2023/01/01 06:08:38;;;;;;;6.18;2.22;;;;;;;13.63;72.12;100960.22;5007843;28;20124;-69
2023/01/01 06:11:05;;;;;;;12.02;2.50;;;;;;;13.63;72.07;100968.38;4996525;28;20042;-69
2023/01/01 06:13:31;;;;;;;7.30;2.55;;;;;;;13.60;72.82;100972.44;4995341;28;20030;-69
2023/01/01 06:15:58;;;;;;;10.20;2.60;;;;;;;13.60;73.04;100983.31;5006188;28;20117;-69
2023/01/01 06:18:24;;;;;;;10.38;2.85;;;;;;;13.63;72.33;100990.13;5004659;28;20112;-69
2023/01/01 06:20:51;;;;;;;10.13;2.53;;;;;;;13.58;73.53;100990.84;5014024;28;20038;-69
2023/01/01 06:23:16;;;;;;;6.68;2.15;;;;;;;13.60;73.09;100996.06;5012707;28;20099;-69
2023/01/01 06:25:42;;;;;;;8.30;2.30;;;;;;;13.58;73.71;101006.34;5010787;28;20026;-69
2023/01/01 06:28:07;;;;;;;11.93;2.92;;;;;;;13.56;75.68;101027.53;5012444;28;20088;-70
2023/01/01 06:30:33;;;;;;;13.52;2.55;;;;;;;13.45;84.34;101049.06;5013677;28;20037;-69
2023/01/01 06:32:59;;;;;;;10.27;2.40;;;;;;;13.22;97.00;101051.78;5014935;28;20116;-69
2023/01/01 06:35:24;;;;;;;10.65;2.58;;;;;;;12.93;100.00;101063.34;5008108;28;20113;-69
2023/01/01 06:37:50;;;;;;;9.70;2.50;;;;;;;12.70;100.00;101055.19;5013843;28;20030;-69
2023/01/01 06:40:15;;;;;;;9.70;2.45;;;;;;;12.52;100.00;101062.34;5010846;28;20034;-69
2023/01/01 06:42:40;;;;;;;10.38;2.78;;;;;;;12.41;100.00;101057.75;5013444;28;20468;-69
2023/01/01 06:45:06;;;;;;;8.23;2.60;;;;;;;12.33;100.00;101058.06;5012005;28;20026;-69
2023/01/01 06:47:34;;;;;;;12.75;3.25;;;;;;;12.23;100.00;101075.72;5011196;28;20033;-69
2023/01/01 06:49:59;;;;;;;8.77;2.92;;;;;;;12.16;100.00;101068.75;5013545;28;20470;-69
2023/01/01 06:52:24;;;;;;;12.45;3.45;;;;;;;12.09;100.00;101085.09;5012652;28;20084;-69
2023/01/01 06:54:50;;;;;;;11.73;3.55;;;;;;;12.05;100.00;101095.59;5012183;28;20034;-69
2023/01/01 06:57:15;;;;;;;10.88;3.10;;;;;;;12.01;100.00;101104.41;5011005;28;20385;-69
2023/01/01 06:59:40;;;;;;;10.75;3.03;;;;;;;11.91;100.00;101087.81;5013165;28;20041;-70
2023/01/01 07:02:09;;;;;;;7.18;2.90;;;;;;;11.86;100.00;101092.03;5005133;28;20037;-70
2023/01/01 07:04:34;;;;;;;8.38;2.80;;;;;;;11.79;100.00;101102.16;4994675;28;20120;-69
2023/01/01 07:07:00;;;;;;;7.78;3.17;;;;;;;11.72;100.00;101104.09;5004610;28;20188;-70
2023/01/01 07:09:25;;;;;;;8.85;3.10;;;;;;;11.70;100.00;101098.09;5014038;28;20141;-69
2023/01/01 07:11:50;;;;;;;7.63;2.70;;;;;;;11.62;100.00;101098.38;5009280;28;20492;-69
2023/01/01 07:14:15;;;;;;;7.82;2.63;;;;;;;11.58;100.00;101113.44;5013645;28;20037;-69
2023/01/01 07:16:41;;;;;;;10.50;2.70;;;;;;;11.57;100.00;101109.06;5013212;28;20088;-69
2023/01/01 07:19:06;;;;;;;9.63;2.80;;;;;;;11.57;100.00;101109.91;5010134;28;20532;-69
2023/01/01 07:21:36;;;;;;;8.85;2.50;;;;;;;11.53;100.00;101114.94;4999784;28;20034;-69
2023/01/01 07:24:04;;;;;;;9.57;2.38;;;;;;;11.56;100.00;101102.00;5010940;28;20029;-69
2023/01/01 07:26:31;;;;;;;7.82;2.25;;;;;;;11.50;100.00;101114.56;5012035;28;20037;-69
2023/01/01 07:28:57;;;;;;;6.75;2.20;;;;;;;11.51;100.00;101122.47;4992469;28;20038;-69
2023/01/01 07:31:22;;;;;;;8.13;1.95;;;;;;;11.49;100.00;101119.16;4994014;28;20034;-70
2023/01/01 07:33:47;;;;;;;5.95;2.20;;;;;;;11.52;100.00;101124.13;5004282;28;20112;-69
2023/01/01 07:36:13;;;;;;;6.20;2.10;;;;;;;11.46;100.00;101135.03;5013365;28;20026;-69
2023/01/01 07:38:38;;;;;;;6.45;2.20;;;;;;;11.46;100.00;101141.28;4996560;28;20031;-69
2023/01/01 07:41:04;;;;;;;8.70;2.03;;;;;;;11.50;100.00;101141.66;4995464;28;20034;-69
2023/01/01 07:43:30;;;;;;;8.20;2.10;;;;;;;11.43;100.00;101146.31;5008509;28;20034;-69
2023/01/01 07:45:56;;;;;;;9.40;2.22;;;;;;;11.36;100.00;101146.38;4998096;28;20038;-69
2023/01/01 07:48:22;;;;;;;10.23;2.42;;;;;;;11.34;100.00;101153.91;4993037;28;20133;-69
2023/01/01 07:50:47;;;;;;;6.47;2.03;;;;;;;11.33;100.00;101160.38;4992195;28;20124;-69
2023/01/01 07:53:12;;;;;;;6.97;2.33;;;;;;;11.31;100.00;101157.06;4993968;28;20394;-69
2023/01/01 07:55:37;;;;;;;11.52;2.05;;;;;;;11.27;100.00;101164.78;4992867;28;20045;-70
2023/01/01 07:58:03;;;;;;;11.25;3.10;;;;;;;11.21;100.00;101170.28;4996129;28;20122;-69
2023/01/01 08:00:28;;;;;;;9.35;2.60;;;;;;;11.18;100.00;101171.53;4991839;28;20417;-69
2023/01/01 08:02:54;;;;;;;10.50;2.47;;;;;;;11.17;100.00;101195.09;4998320;28;20041;-70
2023/01/01 08:05:19;;;;;;;10.48;2.35;;;;;;;11.14;100.00;101206.38;5009302;28;20045;-69
2023/01/01 08:07:46;;;;;;;8.48;2.75;;;;;;;11.08;100.00;101212.69;5011226;28;20025;-69
2023/01/01 08:10:11;;;;;;;11.70;2.40;;;;;;;11.09;100.00;101217.03;5012251;28;20042;-70
2023/01/01 08:12:37;;;;;;;7.75;2.35;;;;;;;11.11;100.00;101222.22;5003027;28;20517;-70
2023/01/01 08:15:02;;;;;;;9.52;2.53;;;;;;;11.06;100.00;101219.34;5005229;28;20473;-69
2023/01/01 08:17:27;;;;;;;10.90;2.38;;;;;;;11.00;100.00;101231.88;4992676;28;20035;-69
2023/01/01 08:19:52;;;;;;;12.13;2.63;;;;;;;11.01;100.00;101217.31;5005818;28;20473;-69
2023/01/01 08:22:18;;;;;;;10.52;2.40;;;;;;;10.99;100.00;101208.56;4998373;28;20079;-70
2023/01/01 08:24:43;;;;;;;8.05;2.60;;;;;;;10.98;100.00;101218.56;4997436;28;20045;-69
2023/01/01 08:27:13;;;;;;;6.43;2.50;;;;;;;10.96;100.00;101220.66;4997749;28;20034;-69
2023/01/01 08:29:38;;;;;;;10.50;3.28;;;;;;;10.99;100.00;101222.94;5011185;28;20044;-70
2023/01/01 08:32:04;;;;;;;10.73;2.88;;;;;;;10.97;100.00;101218.78;5009182;28;20713;-69
2023/01/01 08:34:29;;;;;;;12.52;2.97;;;;;;;11.04;100.00;101229.59;5001710;28;20423;-70
2023/01/01 08:36:55;;;;;;;9.02;2.70;;;;;;;11.03;100.00;101228.75;4993818;28;20053;-70
2023/01/01 08:39:20;;;;;;;9.00;3.30;;;;;;;11.00;100.00;101226.47;5011239;28;20042;-70
2023/01/01 08:41:45;;;;;;;12.15;5.60;;;;;;;11.01;100.00;101247.09;5005806;28;20033;-70
2023/01/01 08:44:11;;;;;;;12.27;3.30;;;;;;;10.97;100.00;101248.56;5012764;28;20096;-70
2023/01/01 08:46:36;;;;;;;12.77;4.93;;;;;;;10.99;100.00;101255.44;5013939;28;20033;-69
2023/01/01 08:49:01;;;;;;;16.88;6.25;;;;;;;11.01;100.00;101254.41;5030992;28;20108;-70
2023/01/01 08:51:26;;;;;;;12.60;4.65;;;;;;;11.02;100.00;101247.91;5031907;28;20029;-69
2023/01/01 08:53:52;;;;;;;12.95;4.72;;;;;;;11.06;100.00;101247.25;5032318;28;20034;-70
2023/01/01 08:56:17;;;;;;;11.23;3.10;;;;;;;11.06;100.00;101271.63;5013195;28;20549;-70
2023/01/01 08:58:43;;;;;;;11.18;3.00;;;;;;;11.02;100.00;101272.28;5010943;28;20030;-70
2023/01/01 09:01:09;;;;;;;8.65;2.67;;;;;;;11.02;100.00;101272.28;5006016;28;20541;-70
2023/01/01 09:03:35;;;;;;;11.18;2.72;;;;;;;11.02;100.00;101258.75;5004282;28;20457;-70
2023/01/01 09:06:00;;;;;;;10.40;2.85;;;;;;;10.96;100.00;101242.34;5012497;28;20088;-70
2023/01/01 09:08:26;;;;;;;9.27;3.08;;;;;;;11.02;100.00;101243.34;5010936;28;20025;-70
2023/01/01 09:10:56;;;;;;;9.43;2.92;;;;;;;11.04;100.00;101257.50;5005085;28;20039;-69
2023/01/01 09:13:21;;;;;;;10.52;3.63;;;;;;;11.07;100.00;101256.22;4992994;28;20030;-70
2023/01/01 09:15:47;;;;;;;11.18;3.42;;;;;;;11.11;100.00;101257.44;4996013;28;20030;-70
2023/01/01 09:18:12;;;;;;;13.00;3.13;;;;;;;11.10;100.00;101275.56;5011197;28;20049;-70
2023/01/01 09:20:38;;;;;;;12.93;3.15;;;;;;;11.12;100.00;101273.47;5012061;28;20041;-70
2023/01/01 09:23:04;;;;;;;9.70;3.00;;;;;;;11.10;100.00;101253.91;5006363;28;20038;-70
2023/01/01 09:25:30;;;;;;;9.43;2.92;;;;;;;11.12;100.00;101254.50;5014559;28;20129;-69
2023/01/01 09:28:05;;;;;;;10.25;3.00;;;;;;;11.14;100.00;101260.56;5014825;28;20037;-70
2023/01/01 09:30:30;;;;;;;9.68;2.63;;;;;;;11.13;100.00;101261.59;4996109;28;20395;-69
2023/01/01 09:32:56;;;;;;;12.93;3.40;;;;;;;11.16;100.00;101272.00;4996303;28;20030;-70
2023/01/01 09:35:21;;;;;;;11.48;3.70;;;;;;;11.12;100.00;101281.59;5015954;28;20044;-70
2023/01/01 09:37:47;;;;;;;11.45;3.17;;;;;;;11.12;100.00;101276.16;5014978;28;20414;-70
2023/01/01 09:40:44;;;;;;;7.20;2.85;;;;;;;11.18;100.00;101294.25;5009647;28;20034;-70
2023/01/01 09:43:43;;;;;;;11.13;3.20;;;;;;;11.15;100.00;101283.03;5009515;28;20033;-70
2023/01/01 09:46:10;;;;;;;10.70;3.20;;;;;;;11.13;100.00;101282.44;5014254;28;20030;-70
2023/01/01 09:48:40;;;;;;;15.38;4.13;;;;;;;11.07;100.00;101278.72;5009771;28;20034;-70
2023/01/01 09:51:14;;;;;;;10.15;3.25;;;;;;;11.11;100.00;101279.94;4999206;28;20436;-70
2023/01/01 09:53:47;;;;;;;11.02;3.10;;;;;;;11.16;100.00;101284.72;4994591;28;20429;-70
2023/01/01 09:56:19;;;;;;;12.50;3.40;;;;;;;11.15;100.00;101291.16;5006897;28;20022;-69
2023/01/01 09:58:45;;;;;;;9.30;3.55;;;;;;;11.19;100.00;101286.97;5015597;28;20022;-70
2023/01/01 10:01:25;;;;;;;11.73;3.38;;;;;;;11.13;100.00;101283.25;5011984;28;20133;-70
2023/01/01 10:04:05;;;;;;;12.10;3.67;;;;;;;11.13;100.00;101280.56;5015355;28;20104;-70
2023/01/01 10:06:35;;;;;;;8.65;3.33;;;;;;;11.09;100.00;101284.72;5015267;28;20025;-70
2023/01/01 10:09:22;;;;;;;9.90;3.08;;;;;;;11.09;100.00;101281.22;5006788;28;20429;-70
2023/01/01 10:11:53;;;;;;;10.10;3.88;;;;;;;11.09;100.00;101287.44;5009635;28;20038;-70
2023/01/01 10:14:30;;;;;;;10.30;3.72;;;;;;;11.13;100.00;101283.25;4996551;28;20390;-70
2023/01/01 10:16:59;;;;;;;9.40;3.45;;;;;;;11.12;100.00;101275.34;5000048;28;20025;-70
2023/01/01 10:19:41;;;;;;;11.98;4.25;;;;;;;11.16;100.00;101276.59;5014956;28;20030;-70
2023/01/01 10:22:19;;;;;;;9.25;3.67;;;;;;;11.15;100.00;101281.16;5013082;28;20026;-70
2023/01/01 10:25:00;;;;;;;12.30;4.07;;;;;;;11.22;100.00;101281.13;5010245;28;20034;-70
2023/01/01 10:27:28;;;;;;;14.85;4.22;;;;;;;11.22;100.00;101285.69;5013786;28;20038;-70
2023/01/01 10:29:55;;;;;;;12.52;4.05;;;;;;;11.25;100.00;101285.28;5012511;28;20038;-70
2023/01/01 10:32:42;;;;;;;16.75;4.80;;;;;;;11.30;100.00;101282.75;5007704;28;20034;-70
2023/01/01 10:35:17;;;;;;;16.27;7.22;;;;;;;11.29;100.00;101283.78;5001244;28;20446;-69
2023/01/01 10:37:42;;;;;;;16.73;5.35;;;;;;;11.30;100.00;101282.75;5008076;28;20029;-71
2023/01/01 10:40:23;;;;;;;17.35;8.05;;;;;;;11.34;100.00;101278.53;5012154;28;20036;-69
2023/01/01 10:42:51;;;;;;;11.88;5.30;;;;;;;11.37;100.00;101280.81;5000334;28;20026;-69
2023/01/01 10:45:29;;;;;;;18.85;5.75;;;;;;;11.36;100.00;101281.84;5014445;28;20037;-69
2023/01/01 10:48:21;;;;;;;14.45;4.18;;;;;;;11.46;100.00;101281.38;5012520;28;20049;-69
2023/01/01 10:50:52;;;;;;;14.88;4.93;;;;;;;11.47;100.00;101281.16;4996267;28;20031;-68
2023/01/01 10:53:20;;;;;;;14.63;4.60;;;;;;;11.50;100.00;101280.72;4997219;28;20037;-69
2023/01/01 10:56:11;;;;;;;14.35;4.85;;;;;;;11.59;100.00;101275.84;5008496;28;20518;-70
2023/01/01 10:58:57;;;;;;;18.20;4.20;;;;;;;11.66;100.00;101276.63;4999806;28;20042;-70
2023/01/01 11:01:24;;;;;;;17.35;4.28;;;;;;;11.70;100.00;101280.53;5008639;28;20046;-69
2023/01/01 11:04:16;;;;;;;15.88;4.43;;;;;;;11.76;100.00;101280.69;5010984;28;20034;-71
2023/01/01 11:06:45;;;;;;;12.75;3.85;;;;;;;11.83;100.00;101286.91;4998759;28;20031;-69
2023/01/01 11:09:24;;;;;;;12.13;4.05;;;;;;;11.87;100.00;101293.53;4994931;28;20034;-72
2023/01/01 11:12:01;;;;;;;10.13;3.40;;;;;;;11.92;100.00;101290.97;4995496;28;20516;-74
2023/01/01 11:14:48;;;;;;;19.33;6.00;;;;;;;11.95;100.00;101300.59;4993013;28;20035;-71
2023/01/01 11:17:20;;;;;;;17.65;9.38;;;;;;;11.97;100.00;101301.19;5015412;28;20030;-71
2023/01/01 11:19:48;;;;;;;24.85;12.18;;;;;;;12.02;100.00;101304.06;5028284;28;20029;-70
2023/01/01 11:22:45;;;;;;;14.35;3.92;;;;;;;12.07;100.00;101320.50;5008041;28;20069;-71
2023/01/01 11:25:31;;;;;;;20.08;4.40;;;;;;;12.13;100.00;101326.94;4992698;28;20023;-72
2023/01/01 11:28:14;;;;;;;13.25;3.78;;;;;;;12.15;100.00;101312.09;5005187;28;20038;-74